sensor_id;sensor_type;location;lat;lon;timestamp;P1;durP1;ratioP1;P2;durP2;ratioP2
22531;SDS011;11432;46.924;7.114;2022-11-10T00:00:32;2.80;;;1.55;;
22531;SDS011;11432;46.924;7.114;2022-11-10T00:03:05;2.30;;;1.63;;
22531;SDS011;11432;46.924;7.114;2022-11-10T00:05:32;2.70;;;1.90;;
22531;SDS011;11432;46.924;7.114;2022-11-10T00:08:06;2.50;;;1.80;;
22531;SDS011;11432;46.924;7.114;2022-11-10T00:10:34;2.33;;;1.60;;
22531;SDS011;11432;46.924;7.114;2022-11-10T00:13:21;3.28;;;1.73;;
22531;SDS011;11432;46.924;7.114;2022-11-10T00:15:53;2.97;;;2.00;;
22531;SDS011;11432;46.924;7.114;2022-11-10T00:18:38;2.35;;;1.77;;
22531;SDS011;11432;46.924;7.114;2022-11-10T00:21:04;3.20;;;2.13;;
22531;SDS011;11432;46.924;7.114;2022-11-10T00:23:31;3.70;;;2.17;;
22531;SDS011;11432;46.924;7.114;2022-11-10T00:25:57;3.08;;;1.90;;
22531;SDS011;11432;46.924;7.114;2022-11-10T00:28:23;3.55;;;1.75;;
22531;SDS011;11432;46.924;7.114;2022-11-10T00:30:48;4.90;;;2.03;;
22531;SDS011;11432;46.924;7.114;2022-11-10T00:33:14;3.00;;;2.33;;
22531;SDS011;11432;46.924;7.114;2022-11-10T00:35:40;2.85;;;2.22;;
22531;SDS011;11432;46.924;7.114;2022-11-10T00:38:05;2.70;;;2.25;;
22531;SDS011;11432;46.924;7.114;2022-11-10T00:40:31;4.65;;;2.13;;
22531;SDS011;11432;46.924;7.114;2022-11-10T00:42:56;3.78;;;2.53;;
22531;SDS011;11432;46.924;7.114;2022-11-10T00:45:22;3.80;;;2.08;;
22531;SDS011;11432;46.924;7.114;2022-11-10T00:47:47;3.10;;;2.20;;
22531;SDS011;11432;46.924;7.114;2022-11-10T00:50:13;3.72;;;2.42;;
22531;SDS011;11432;46.924;7.114;2022-11-10T00:52:39;2.97;;;2.35;;
22531;SDS011;11432;46.924;7.114;2022-11-10T00:55:05;4.78;;;2.30;;
22531;SDS011;11432;46.924;7.114;2022-11-10T00:57:31;4.40;;;2.20;;
22531;SDS011;11432;46.924;7.114;2022-11-10T00:59:57;4.53;;;2.42;;
22531;SDS011;11432;46.924;7.114;2022-11-10T01:02:22;2.65;;;2.15;;
22531;SDS011;11432;46.924;7.114;2022-11-10T01:04:48;4.03;;;2.20;;
22531;SDS011;11432;46.924;7.114;2022-11-10T01:07:13;3.88;;;2.45;;
22531;SDS011;11432;46.924;7.114;2022-11-10T01:09:39;12.50;;;2.63;;
22531;SDS011;11432;46.924;7.114;2022-11-10T01:12:04;3.58;;;2.70;;
22531;SDS011;11432;46.924;7.114;2022-11-10T01:14:30;4.57;;;2.55;;
22531;SDS011;11432;46.924;7.114;2022-11-10T01:16:56;5.75;;;2.60;;
22531;SDS011;11432;46.924;7.114;2022-11-10T01:19:21;3.33;;;2.47;;
22531;SDS011;11432;46.924;7.114;2022-11-10T01:21:48;4.93;;;2.78;;
22531;SDS011;11432;46.924;7.114;2022-11-10T01:24:17;3.10;;;2.50;;
22531;SDS011;11432;46.924;7.114;2022-11-10T01:26:44;3.67;;;2.63;;
22531;SDS011;11432;46.924;7.114;2022-11-10T01:29:10;4.35;;;2.50;;
22531;SDS011;11432;46.924;7.114;2022-11-10T01:31:35;3.10;;;2.10;;
22531;SDS011;11432;46.924;7.114;2022-11-10T01:34:01;4.10;;;2.47;;
22531;SDS011;11432;46.924;7.114;2022-11-10T01:36:27;3.22;;;2.25;;
22531;SDS011;11432;46.924;7.114;2022-11-10T01:38:52;2.70;;;2.20;;
22531;SDS011;11432;46.924;7.114;2022-11-10T01:41:18;4.15;;;2.15;;
22531;SDS011;11432;46.924;7.114;2022-11-10T01:43:43;6.07;;;2.00;;
22531;SDS011;11432;46.924;7.114;2022-11-10T01:46:10;2.25;;;1.92;;
22531;SDS011;11432;46.924;7.114;2022-11-10T01:54:15;3.80;;;2.55;;
22531;SDS011;11432;46.924;7.114;2022-11-10T01:56:49;4.65;;;2.30;;
22531;SDS011;11432;46.924;7.114;2022-11-10T01:59:21;2.72;;;2.20;;
22531;SDS011;11432;46.924;7.114;2022-11-10T02:01:55;3.80;;;2.25;;
22531;SDS011;11432;46.924;7.114;2022-11-10T02:04:25;2.70;;;2.20;;
22531;SDS011;11432;46.924;7.114;2022-11-10T02:06:51;2.40;;;1.70;;
22531;SDS011;11432;46.924;7.114;2022-11-10T02:09:18;4.90;;;2.08;;
22531;SDS011;11432;46.924;7.114;2022-11-10T02:11:44;2.25;;;1.73;;
22531;SDS011;11432;46.924;7.114;2022-11-10T02:14:10;2.80;;;2.08;;
22531;SDS011;11432;46.924;7.114;2022-11-10T02:16:37;3.85;;;2.10;;
22531;SDS011;11432;46.924;7.114;2022-11-10T02:19:14;5.68;;;1.85;;
22531;SDS011;11432;46.924;7.114;2022-11-10T02:21:42;1.63;;;1.52;;
22531;SDS011;11432;46.924;7.114;2022-11-10T02:24:08;3.08;;;1.90;;
22531;SDS011;11432;46.924;7.114;2022-11-10T02:26:33;2.70;;;2.10;;
22531;SDS011;11432;46.924;7.114;2022-11-10T02:29:01;2.53;;;1.80;;
22531;SDS011;11432;46.924;7.114;2022-11-10T02:31:27;2.63;;;2.10;;
22531;SDS011;11432;46.924;7.114;2022-11-10T02:33:52;3.03;;;2.30;;
22531;SDS011;11432;46.924;7.114;2022-11-10T02:36:18;3.35;;;2.15;;
22531;SDS011;11432;46.924;7.114;2022-11-10T02:38:44;2.63;;;1.92;;
22531;SDS011;11432;46.924;7.114;2022-11-10T02:41:09;3.58;;;2.03;;
22531;SDS011;11432;46.924;7.114;2022-11-10T02:43:35;3.38;;;1.88;;
22531;SDS011;11432;46.924;7.114;2022-11-10T02:46:02;3.00;;;2.17;;
22531;SDS011;11432;46.924;7.114;2022-11-10T02:48:28;3.00;;;1.80;;
22531;SDS011;11432;46.924;7.114;2022-11-10T02:50:53;2.88;;;1.98;;
22531;SDS011;11432;46.924;7.114;2022-11-10T02:53:19;4.40;;;1.73;;
22531;SDS011;11432;46.924;7.114;2022-11-10T02:55:45;2.55;;;1.90;;
22531;SDS011;11432;46.924;7.114;2022-11-10T02:58:11;3.50;;;1.90;;
22531;SDS011;11432;46.924;7.114;2022-11-10T03:00:36;3.65;;;2.42;;
22531;SDS011;11432;46.924;7.114;2022-11-10T03:03:02;3.35;;;2.15;;
22531;SDS011;11432;46.924;7.114;2022-11-10T03:05:29;3.78;;;2.67;;
22531;SDS011;11432;46.924;7.114;2022-11-10T03:07:56;2.72;;;1.90;;
22531;SDS011;11432;46.924;7.114;2022-11-10T03:10:24;2.70;;;1.90;;
22531;SDS011;11432;46.924;7.114;2022-11-10T03:12:56;2.88;;;1.90;;
22531;SDS011;11432;46.924;7.114;2022-11-10T03:15:24;3.42;;;2.47;;
22531;SDS011;11432;46.924;7.114;2022-11-10T03:17:50;3.65;;;1.73;;
22531;SDS011;11432;46.924;7.114;2022-11-10T03:20:16;2.60;;;1.92;;
22531;SDS011;11432;46.924;7.114;2022-11-10T03:22:43;2.08;;;1.80;;
22531;SDS011;11432;46.924;7.114;2022-11-10T03:25:10;3.20;;;1.60;;
22531;SDS011;11432;46.924;7.114;2022-11-10T03:27:36;1.67;;;1.42;;
22531;SDS011;11432;46.924;7.114;2022-11-10T03:30:02;2.45;;;1.85;;
22531;SDS011;11432;46.924;7.114;2022-11-10T03:32:30;4.03;;;1.67;;
22531;SDS011;11432;46.924;7.114;2022-11-10T03:34:56;2.60;;;1.65;;
22531;SDS011;11432;46.924;7.114;2022-11-10T03:37:21;2.95;;;1.60;;
22531;SDS011;11432;46.924;7.114;2022-11-10T03:39:47;2.60;;;1.63;;
22531;SDS011;11432;46.924;7.114;2022-11-10T03:42:12;3.05;;;1.60;;
22531;SDS011;11432;46.924;7.114;2022-11-10T03:44:38;2.15;;;1.48;;
22531;SDS011;11432;46.924;7.114;2022-11-10T03:47:04;2.08;;;1.52;;
22531;SDS011;11432;46.924;7.114;2022-11-10T03:49:29;2.03;;;1.45;;
22531;SDS011;11432;46.924;7.114;2022-11-10T03:51:55;1.88;;;1.40;;
22531;SDS011;11432;46.924;7.114;2022-11-10T03:54:21;1.65;;;1.45;;
22531;SDS011;11432;46.924;7.114;2022-11-10T03:56:46;2.35;;;1.85;;
22531;SDS011;11432;46.924;7.114;2022-11-10T03:59:12;3.50;;;1.75;;
22531;SDS011;11432;46.924;7.114;2022-11-10T04:01:38;2.00;;;1.63;;
22531;SDS011;11432;46.924;7.114;2022-11-10T04:04:03;4.38;;;1.73;;
22531;SDS011;11432;46.924;7.114;2022-11-10T04:06:29;2.55;;;1.60;;
22531;SDS011;11432;46.924;7.114;2022-11-10T04:09:13;3.38;;;1.83;;
22531;SDS011;11432;46.924;7.114;2022-11-10T04:11:39;2.72;;;1.73;;
22531;SDS011;11432;46.924;7.114;2022-11-10T04:14:23;3.72;;;1.70;;
22531;SDS011;11432;46.924;7.114;2022-11-10T04:17:07;3.03;;;1.65;;
22531;SDS011;11432;46.924;7.114;2022-11-10T04:19:33;3.72;;;1.50;;
22531;SDS011;11432;46.924;7.114;2022-11-10T04:21:59;1.95;;;1.67;;
22531;SDS011;11432;46.924;7.114;2022-11-10T04:24:24;3.90;;;1.45;;
22531;SDS011;11432;46.924;7.114;2022-11-10T04:26:50;1.85;;;1.60;;
22531;SDS011;11432;46.924;7.114;2022-11-10T04:29:17;2.05;;;1.58;;
22531;SDS011;11432;46.924;7.114;2022-11-10T04:31:43;1.88;;;1.48;;
22531;SDS011;11432;46.924;7.114;2022-11-10T04:34:10;2.17;;;1.40;;
22531;SDS011;11432;46.924;7.114;2022-11-10T04:36:38;1.77;;;1.40;;
22531;SDS011;11432;46.924;7.114;2022-11-10T04:39:05;2.67;;;1.52;;
22531;SDS011;11432;46.924;7.114;2022-11-10T04:41:32;2.45;;;1.73;;
22531;SDS011;11432;46.924;7.114;2022-11-10T04:43:58;5.40;;;1.58;;
22531;SDS011;11432;46.924;7.114;2022-11-10T04:46:28;4.95;;;1.58;;
22531;SDS011;11432;46.924;7.114;2022-11-10T04:49:02;3.28;;;1.67;;
22531;SDS011;11432;46.924;7.114;2022-11-10T04:51:29;2.28;;;1.55;;
22531;SDS011;11432;46.924;7.114;2022-11-10T04:53:56;1.88;;;1.45;;
22531;SDS011;11432;46.924;7.114;2022-11-10T04:56:22;2.88;;;1.92;;
22531;SDS011;11432;46.924;7.114;2022-11-10T04:58:49;2.10;;;1.67;;
22531;SDS011;11432;46.924;7.114;2022-11-10T05:01:16;2.90;;;1.60;;
22531;SDS011;11432;46.924;7.114;2022-11-10T05:03:44;3.50;;;1.73;;
22531;SDS011;11432;46.924;7.114;2022-11-10T05:06:10;2.95;;;1.50;;
22531;SDS011;11432;46.924;7.114;2022-11-10T05:08:36;2.55;;;1.23;;
22531;SDS011;11432;46.924;7.114;2022-11-10T05:11:03;3.70;;;1.70;;
22531;SDS011;11432;46.924;7.114;2022-11-10T05:13:29;1.83;;;1.50;;
22531;SDS011;11432;46.924;7.114;2022-11-10T05:15:55;3.08;;;1.58;;
22531;SDS011;11432;46.924;7.114;2022-11-10T05:18:21;2.33;;;1.80;;
22531;SDS011;11432;46.924;7.114;2022-11-10T05:20:47;3.35;;;2.10;;
22531;SDS011;11432;46.924;7.114;2022-11-10T05:23:13;3.28;;;1.95;;
22531;SDS011;11432;46.924;7.114;2022-11-10T05:25:57;3.08;;;1.75;;
22531;SDS011;11432;46.924;7.114;2022-11-10T05:28:23;2.50;;;1.90;;
22531;SDS011;11432;46.924;7.114;2022-11-10T05:30:48;4.28;;;2.05;;
22531;SDS011;11432;46.924;7.114;2022-11-10T05:33:14;2.53;;;1.58;;
22531;SDS011;11432;46.924;7.114;2022-11-10T05:35:40;2.72;;;1.55;;
22531;SDS011;11432;46.924;7.114;2022-11-10T05:38:05;2.17;;;1.42;;
22531;SDS011;11432;46.924;7.114;2022-11-10T05:40:32;3.47;;;1.75;;
22531;SDS011;11432;46.924;7.114;2022-11-10T05:42:58;4.40;;;1.48;;
22531;SDS011;11432;46.924;7.114;2022-11-10T05:45:24;2.00;;;1.38;;
22531;SDS011;11432;46.924;7.114;2022-11-10T05:47:51;2.13;;;1.48;;
22531;SDS011;11432;46.924;7.114;2022-11-10T05:50:18;2.95;;;1.90;;
22531;SDS011;11432;46.924;7.114;2022-11-10T05:52:46;4.30;;;1.95;;
22531;SDS011;11432;46.924;7.114;2022-11-10T05:55:13;6.68;;;2.20;;
22531;SDS011;11432;46.924;7.114;2022-11-10T05:57:41;3.25;;;2.00;;
22531;SDS011;11432;46.924;7.114;2022-11-10T06:00:08;6.15;;;2.60;;
22531;SDS011;11432;46.924;7.114;2022-11-10T06:02:34;4.78;;;2.13;;
22531;SDS011;11432;46.924;7.114;2022-11-10T06:05:00;3.67;;;2.10;;
22531;SDS011;11432;46.924;7.114;2022-11-10T06:07:25;3.05;;;2.20;;
22531;SDS011;11432;46.924;7.114;2022-11-10T06:09:51;4.55;;;1.90;;
22531;SDS011;11432;46.924;7.114;2022-11-10T06:12:16;4.20;;;1.95;;
22531;SDS011;11432;46.924;7.114;2022-11-10T06:14:42;2.97;;;2.10;;
22531;SDS011;11432;46.924;7.114;2022-11-10T06:17:08;2.83;;;2.00;;
22531;SDS011;11432;46.924;7.114;2022-11-10T06:19:33;3.58;;;2.03;;
22531;SDS011;11432;46.924;7.114;2022-11-10T06:21:59;2.53;;;2.15;;
22531;SDS011;11432;46.924;7.114;2022-11-10T06:24:24;3.67;;;2.33;;
22531;SDS011;11432;46.924;7.114;2022-11-10T06:26:50;3.40;;;2.28;;
22531;SDS011;11432;46.924;7.114;2022-11-10T06:29:15;3.50;;;2.20;;
22531;SDS011;11432;46.924;7.114;2022-11-10T06:31:41;4.43;;;2.55;;
22531;SDS011;11432;46.924;7.114;2022-11-10T06:34:07;4.20;;;2.38;;
22531;SDS011;11432;46.924;7.114;2022-11-10T06:36:32;2.90;;;2.30;;
22531;SDS011;11432;46.924;7.114;2022-11-10T06:38:58;3.08;;;2.35;;
22531;SDS011;11432;46.924;7.114;2022-11-10T06:41:24;3.65;;;2.80;;
22531;SDS011;11432;46.924;7.114;2022-11-10T06:43:49;3.47;;;2.20;;
22531;SDS011;11432;46.924;7.114;2022-11-10T06:46:15;4.30;;;2.38;;
22531;SDS011;11432;46.924;7.114;2022-11-10T06:48:40;3.33;;;2.42;;
22531;SDS011;11432;46.924;7.114;2022-11-10T06:51:06;3.85;;;2.72;;
22531;SDS011;11432;46.924;7.114;2022-11-10T06:53:31;2.92;;;2.00;;
22531;SDS011;11432;46.924;7.114;2022-11-10T06:55:58;3.13;;;1.92;;
22531;SDS011;11432;46.924;7.114;2022-11-10T06:58:25;2.90;;;1.65;;
22531;SDS011;11432;46.924;7.114;2022-11-10T07:00:50;2.72;;;1.80;;
22531;SDS011;11432;46.924;7.114;2022-11-10T07:03:16;2.67;;;1.98;;
22531;SDS011;11432;46.924;7.114;2022-11-10T07:05:41;3.67;;;2.60;;
22531;SDS011;11432;46.924;7.114;2022-11-10T07:08:08;2.85;;;2.15;;
22531;SDS011;11432;46.924;7.114;2022-11-10T07:10:37;4.07;;;2.70;;
22531;SDS011;11432;46.924;7.114;2022-11-10T07:13:03;3.30;;;2.38;;
22531;SDS011;11432;46.924;7.114;2022-11-10T07:15:29;4.47;;;2.38;;
22531;SDS011;11432;46.924;7.114;2022-11-10T07:17:55;3.42;;;2.42;;
22531;SDS011;11432;46.924;7.114;2022-11-10T07:20:21;4.18;;;2.60;;
22531;SDS011;11432;46.924;7.114;2022-11-10T07:22:47;3.53;;;2.42;;
22531;SDS011;11432;46.924;7.114;2022-11-10T07:25:12;8.70;;;2.75;;
22531;SDS011;11432;46.924;7.114;2022-11-10T07:27:38;5.28;;;2.50;;
22531;SDS011;11432;46.924;7.114;2022-11-10T07:30:04;3.22;;;2.28;;
22531;SDS011;11432;46.924;7.114;2022-11-10T07:32:30;3.20;;;2.25;;
22531;SDS011;11432;46.924;7.114;2022-11-10T07:34:56;4.32;;;2.03;;
22531;SDS011;11432;46.924;7.114;2022-11-10T07:37:21;2.70;;;2.10;;
22531;SDS011;11432;46.924;7.114;2022-11-10T07:39:47;4.15;;;2.03;;
22531;SDS011;11432;46.924;7.114;2022-11-10T07:42:13;2.67;;;1.75;;
22531;SDS011;11432;46.924;7.114;2022-11-10T07:44:39;2.78;;;1.90;;
22531;SDS011;11432;46.924;7.114;2022-11-10T07:47:04;3.45;;;1.90;;
22531;SDS011;11432;46.924;7.114;2022-11-10T07:49:30;2.15;;;1.80;;
22531;SDS011;11432;46.924;7.114;2022-11-10T07:51:55;2.65;;;1.70;;
22531;SDS011;11432;46.924;7.114;2022-11-10T07:54:21;4.85;;;1.70;;
22531;SDS011;11432;46.924;7.114;2022-11-10T07:56:47;2.72;;;1.73;;
22531;SDS011;11432;46.924;7.114;2022-11-10T07:59:13;3.45;;;1.80;;
22531;SDS011;11432;46.924;7.114;2022-11-10T08:01:38;2.58;;;1.67;;
22531;SDS011;11432;46.924;7.114;2022-11-10T08:04:04;2.55;;;1.67;;
22531;SDS011;11432;46.924;7.114;2022-11-10T08:06:30;2.22;;;1.50;;
22531;SDS011;11432;46.924;7.114;2022-11-10T08:08:56;2.75;;;1.73;;
22531;SDS011;11432;46.924;7.114;2022-11-10T08:11:22;2.05;;;1.60;;
22531;SDS011;11432;46.924;7.114;2022-11-10T08:13:47;2.85;;;1.83;;
22531;SDS011;11432;46.924;7.114;2022-11-10T08:16:13;2.08;;;1.58;;
22531;SDS011;11432;46.924;7.114;2022-11-10T08:18:39;4.03;;;1.60;;
22531;SDS011;11432;46.924;7.114;2022-11-10T08:21:04;2.80;;;1.77;;
22531;SDS011;11432;46.924;7.114;2022-11-10T08:23:31;3.70;;;2.50;;
22531;SDS011;11432;46.924;7.114;2022-11-10T08:25:57;7.15;;;3.22;;
22531;SDS011;11432;46.924;7.114;2022-11-10T08:28:23;6.57;;;4.78;;
22531;SDS011;11432;46.924;7.114;2022-11-10T08:30:50;5.13;;;3.75;;
22531;SDS011;11432;46.924;7.114;2022-11-10T08:33:16;8.57;;;4.18;;
22531;SDS011;11432;46.924;7.114;2022-11-10T08:35:47;5.30;;;3.60;;
22531;SDS011;11432;46.924;7.114;2022-11-10T08:38:15;5.18;;;3.25;;
22531;SDS011;11432;46.924;7.114;2022-11-10T08:40:45;5.88;;;3.58;;
22531;SDS011;11432;46.924;7.114;2022-11-10T08:43:11;5.95;;;3.33;;
22531;SDS011;11432;46.924;7.114;2022-11-10T08:45:38;5.05;;;3.50;;
22531;SDS011;11432;46.924;7.114;2022-11-10T08:48:16;4.32;;;3.38;;
22531;SDS011;11432;46.924;7.114;2022-11-10T08:50:43;4.43;;;3.00;;
22531;SDS011;11432;46.924;7.114;2022-11-10T08:53:10;4.60;;;3.38;;
22531;SDS011;11432;46.924;7.114;2022-11-10T08:55:38;5.13;;;3.58;;
22531;SDS011;11432;46.924;7.114;2022-11-10T09:00:32;6.10;;;4.00;;
22531;SDS011;11432;46.924;7.114;2022-11-10T09:03:02;8.02;;;4.03;;
22531;SDS011;11432;46.924;7.114;2022-11-10T09:05:34;4.88;;;3.35;;
22531;SDS011;11432;46.924;7.114;2022-11-10T09:08:00;3.90;;;3.15;;
22531;SDS011;11432;46.924;7.114;2022-11-10T09:10:27;9.98;;;3.78;;
22531;SDS011;11432;46.924;7.114;2022-11-10T09:12:54;7.03;;;3.78;;
22531;SDS011;11432;46.924;7.114;2022-11-10T09:15:23;5.22;;;3.33;;
22531;SDS011;11432;46.924;7.114;2022-11-10T09:17:48;8.38;;;4.20;;
22531;SDS011;11432;46.924;7.114;2022-11-10T09:20:14;5.50;;;3.70;;
22531;SDS011;11432;46.924;7.114;2022-11-10T09:22:40;5.93;;;3.50;;
22531;SDS011;11432;46.924;7.114;2022-11-10T09:25:06;6.68;;;3.25;;
22531;SDS011;11432;46.924;7.114;2022-11-10T09:27:37;5.70;;;3.38;;
22531;SDS011;11432;46.924;7.114;2022-11-10T09:30:04;5.93;;;3.92;;
22531;SDS011;11432;46.924;7.114;2022-11-10T09:32:30;6.10;;;4.40;;
22531;SDS011;11432;46.924;7.114;2022-11-10T09:34:57;6.28;;;4.15;;
22531;SDS011;11432;46.924;7.114;2022-11-10T09:37:23;8.20;;;4.60;;
22531;SDS011;11432;46.924;7.114;2022-11-10T09:39:49;8.13;;;4.28;;
22531;SDS011;11432;46.924;7.114;2022-11-10T09:42:34;5.72;;;3.95;;
22531;SDS011;11432;46.924;7.114;2022-11-10T09:45:10;7.53;;;4.45;;
22531;SDS011;11432;46.924;7.114;2022-11-10T09:50:44;7.18;;;4.10;;
22531;SDS011;11432;46.924;7.114;2022-11-10T09:53:21;10.40;;;4.88;;
22531;SDS011;11432;46.924;7.114;2022-11-10T09:55:52;9.75;;;5.10;;
22531;SDS011;11432;46.924;7.114;2022-11-10T09:58:22;9.70;;;5.20;;
22531;SDS011;11432;46.924;7.114;2022-11-10T10:01:00;8.80;;;4.70;;
22531;SDS011;11432;46.924;7.114;2022-11-10T10:03:32;7.40;;;4.65;;
22531;SDS011;11432;46.924;7.114;2022-11-10T10:13:50;5.95;;;3.72;;
22531;SDS011;11432;46.924;7.114;2022-11-10T10:24:47;8.52;;;2.67;;
22531;SDS011;11432;46.924;7.114;2022-11-10T10:27:21;3.92;;;2.55;;
22531;SDS011;11432;46.924;7.114;2022-11-10T10:29:50;4.65;;;2.63;;
22531;SDS011;11432;46.924;7.114;2022-11-10T10:32:16;4.32;;;2.80;;
22531;SDS011;11432;46.924;7.114;2022-11-10T10:34:43;4.32;;;2.97;;
22531;SDS011;11432;46.924;7.114;2022-11-10T10:39:53;4.18;;;2.47;;
22531;SDS011;11432;46.924;7.114;2022-11-10T10:42:27;4.10;;;2.63;;
22531;SDS011;11432;46.924;7.114;2022-11-10T10:47:43;5.90;;;2.40;;
22531;SDS011;11432;46.924;7.114;2022-11-10T10:55:29;7.35;;;2.92;;
22531;SDS011;11432;46.924;7.114;2022-11-10T10:57:59;6.43;;;2.63;;
22531;SDS011;11432;46.924;7.114;2022-11-10T11:00:26;6.47;;;2.10;;
22531;SDS011;11432;46.924;7.114;2022-11-10T11:03:00;3.80;;;1.85;;
22531;SDS011;11432;46.924;7.114;2022-11-10T11:05:27;3.08;;;1.73;;
22531;SDS011;11432;46.924;7.114;2022-11-10T11:07:57;2.08;;;1.33;;
22531;SDS011;11432;46.924;7.114;2022-11-10T11:10:31;2.83;;;1.55;;
22531;SDS011;11432;46.924;7.114;2022-11-10T11:15:57;2.10;;;1.45;;
22531;SDS011;11432;46.924;7.114;2022-11-10T11:18:32;5.47;;;1.42;;
22531;SDS011;11432;46.924;7.114;2022-11-10T11:24:29;4.18;;;1.35;;
22531;SDS011;11432;46.924;7.114;2022-11-10T11:35:23;2.35;;;1.08;;
22531;SDS011;11432;46.924;7.114;2022-11-10T11:45:55;3.63;;;1.23;;
22531;SDS011;11432;46.924;7.114;2022-11-10T11:48:34;5.70;;;1.67;;
22531;SDS011;11432;46.924;7.114;2022-11-10T11:51:44;2.00;;;0.80;;
22531;SDS011;11432;46.924;7.114;2022-11-10T12:15:30;2.25;;;0.70;;
22531;SDS011;11432;46.924;7.114;2022-11-10T12:18:06;2.17;;;0.60;;
22531;SDS011;11432;46.924;7.114;2022-11-10T12:20:40;1.88;;;0.80;;
22531;SDS011;11432;46.924;7.114;2022-11-10T12:28:43;3.42;;;1.00;;
22531;SDS011;11432;46.924;7.114;2022-11-10T12:31:17;2.08;;;0.95;;
22531;SDS011;11432;46.924;7.114;2022-11-10T12:33:58;2.15;;;0.80;;
22531;SDS011;11432;46.924;7.114;2022-11-10T12:36:29;1.85;;;0.90;;
22531;SDS011;11432;46.924;7.114;2022-11-10T12:41:48;2.30;;;0.90;;
22531;SDS011;11432;46.924;7.114;2022-11-10T12:46:48;2.45;;;0.85;;
22531;SDS011;11432;46.924;7.114;2022-11-10T12:49:37;2.42;;;1.00;;
22531;SDS011;11432;46.924;7.114;2022-11-10T12:54:44;2.00;;;0.73;;
22531;SDS011;11432;46.924;7.114;2022-11-10T12:57:12;1.75;;;0.93;;
22531;SDS011;11432;46.924;7.114;2022-11-10T12:59:50;1.50;;;0.73;;
22531;SDS011;11432;46.924;7.114;2022-11-10T13:05:10;3.58;;;1.00;;
22531;SDS011;11432;46.924;7.114;2022-11-10T13:07:49;2.78;;;0.90;;
22531;SDS011;11432;46.924;7.114;2022-11-10T13:10:28;1.40;;;0.60;;
22531;SDS011;11432;46.924;7.114;2022-11-10T13:18:10;1.85;;;0.90;;
22531;SDS011;11432;46.924;7.114;2022-11-10T13:20:48;2.97;;;0.80;;
22531;SDS011;11432;46.924;7.114;2022-11-10T13:36:50;1.48;;;0.70;;
22531;SDS011;11432;46.924;7.114;2022-11-10T13:44:23;1.77;;;0.60;;
22531;SDS011;11432;46.924;7.114;2022-11-10T13:46:57;3.30;;;0.68;;
22531;SDS011;11432;46.924;7.114;2022-11-10T13:55:11;1.52;;;0.65;;
22531;SDS011;11432;46.924;7.114;2022-11-10T13:58:04;1.27;;;0.60;;
22531;SDS011;11432;46.924;7.114;2022-11-10T14:00:34;1.77;;;0.68;;
22531;SDS011;11432;46.924;7.114;2022-11-10T14:03:04;2.78;;;0.60;;
22531;SDS011;11432;46.924;7.114;2022-11-10T14:08:03;3.35;;;0.80;;
22531;SDS011;11432;46.924;7.114;2022-11-10T14:13:45;1.45;;;0.47;;
22531;SDS011;11432;46.924;7.114;2022-11-10T14:16:20;1.02;;;0.43;;
22531;SDS011;11432;46.924;7.114;2022-11-10T14:21:31;2.40;;;0.80;;
22531;SDS011;11432;46.924;7.114;2022-11-10T14:24:27;2.20;;;0.60;;
22531;SDS011;11432;46.924;7.114;2022-11-10T14:27:06;1.20;;;0.50;;
22531;SDS011;11432;46.924;7.114;2022-11-10T14:29:37;4.88;;;0.98;;
22531;SDS011;11432;46.924;7.114;2022-11-10T14:32:25;1.60;;;0.52;;
22531;SDS011;11432;46.924;7.114;2022-11-10T14:34:50;3.58;;;0.57;;
22531;SDS011;11432;46.924;7.114;2022-11-10T14:37:22;0.60;;;0.40;;
22531;SDS011;11432;46.924;7.114;2022-11-10T14:39:51;4.22;;;0.65;;
22531;SDS011;11432;46.924;7.114;2022-11-10T14:42:26;1.05;;;0.50;;
22531;SDS011;11432;46.924;7.114;2022-11-10T14:47:29;3.00;;;0.52;;
22531;SDS011;11432;46.924;7.114;2022-11-10T14:52:39;2.55;;;0.60;;
22531;SDS011;11432;46.924;7.114;2022-11-10T14:55:08;2.23;;;0.80;;
22531;SDS011;11432;46.924;7.114;2022-11-10T14:57:39;1.58;;;0.60;;
22531;SDS011;11432;46.924;7.114;2022-11-10T15:00:16;1.08;;;0.65;;
22531;SDS011;11432;46.924;7.114;2022-11-10T15:02:44;1.90;;;0.75;;
22531;SDS011;11432;46.924;7.114;2022-11-10T15:05:13;2.08;;;0.70;;
22531;SDS011;11432;46.924;7.114;2022-11-10T15:07:39;1.65;;;0.70;;
22531;SDS011;11432;46.924;7.114;2022-11-10T15:12:35;2.53;;;0.80;;
22531;SDS011;11432;46.924;7.114;2022-11-10T15:15:00;3.17;;;1.00;;
22531;SDS011;11432;46.924;7.114;2022-11-10T15:17:42;2.60;;;0.80;;
22531;SDS011;11432;46.924;7.114;2022-11-10T15:20:29;1.20;;;0.60;;
22531;SDS011;11432;46.924;7.114;2022-11-10T15:22:57;2.70;;;0.63;;
22531;SDS011;11432;46.924;7.114;2022-11-10T15:25:24;3.20;;;1.00;;
22531;SDS011;11432;46.924;7.114;2022-11-10T15:27:59;2.53;;;0.63;;
22531;SDS011;11432;46.924;7.114;2022-11-10T15:30:27;2.05;;;0.70;;
22531;SDS011;11432;46.924;7.114;2022-11-10T15:32:53;3.30;;;0.85;;
22531;SDS011;11432;46.924;7.114;2022-11-10T15:38:54;2.33;;;0.82;;
22531;SDS011;11432;46.924;7.114;2022-11-10T15:41:02;2.45;;;0.88;;
22531;SDS011;11432;46.924;7.114;2022-11-10T15:43:36;3.25;;;1.00;;
22531;SDS011;11432;46.924;7.114;2022-11-10T15:46:08;2.95;;;1.05;;
22531;SDS011;11432;46.924;7.114;2022-11-10T15:48:44;2.05;;;1.10;;
22531;SDS011;11432;46.924;7.114;2022-11-10T15:51:13;4.03;;;1.23;;
22531;SDS011;11432;46.924;7.114;2022-11-10T15:53:41;3.78;;;1.10;;
22531;SDS011;11432;46.924;7.114;2022-11-10T15:56:12;5.25;;;1.77;;
22531;SDS011;11432;46.924;7.114;2022-11-10T15:58:41;4.07;;;1.05;;
22531;SDS011;11432;46.924;7.114;2022-11-10T16:01:10;3.63;;;1.30;;
22531;SDS011;11432;46.924;7.114;2022-11-10T16:03:36;3.47;;;1.52;;
22531;SDS011;11432;46.924;7.114;2022-11-10T16:06:01;4.32;;;1.73;;
22531;SDS011;11432;46.924;7.114;2022-11-10T16:08:27;4.32;;;1.40;;
22531;SDS011;11432;46.924;7.114;2022-11-10T16:10:56;1.67;;;1.20;;
22531;SDS011;11432;46.924;7.114;2022-11-10T16:13:28;2.03;;;1.20;;
22531;SDS011;11432;46.924;7.114;2022-11-10T16:15:56;4.15;;;1.48;;
22531;SDS011;11432;46.924;7.114;2022-11-10T16:18:24;3.67;;;1.33;;
22531;SDS011;11432;46.924;7.114;2022-11-10T16:20:51;3.50;;;1.58;;
22531;SDS011;11432;46.924;7.114;2022-11-10T16:23:17;4.30;;;1.70;;
22531;SDS011;11432;46.924;7.114;2022-11-10T16:25:43;2.85;;;1.77;;
22531;SDS011;11432;46.924;7.114;2022-11-10T16:28:13;3.05;;;1.58;;
22531;SDS011;11432;46.924;7.114;2022-11-10T16:30:45;2.45;;;1.77;;
22531;SDS011;11432;46.924;7.114;2022-11-10T16:33:15;5.20;;;1.48;;
22531;SDS011;11432;46.924;7.114;2022-11-10T16:35:42;3.40;;;1.60;;
22531;SDS011;11432;46.924;7.114;2022-11-10T16:38:13;3.05;;;1.50;;
22531;SDS011;11432;46.924;7.114;2022-11-10T16:40:43;4.05;;;1.58;;
22531;SDS011;11432;46.924;7.114;2022-11-10T16:43:17;4.25;;;1.48;;
22531;SDS011;11432;46.924;7.114;2022-11-10T16:45:43;2.42;;;1.55;;
22531;SDS011;11432;46.924;7.114;2022-11-10T16:48:12;4.22;;;1.40;;
22531;SDS011;11432;46.924;7.114;2022-11-10T16:50:42;3.38;;;1.38;;
22531;SDS011;11432;46.924;7.114;2022-11-10T16:53:12;3.17;;;1.63;;
22531;SDS011;11432;46.924;7.114;2022-11-10T16:55:41;6.05;;;1.73;;
22531;SDS011;11432;46.924;7.114;2022-11-10T16:58:07;4.82;;;1.80;;
22531;SDS011;11432;46.924;7.114;2022-11-10T17:00:32;3.33;;;1.77;;
22531;SDS011;11432;46.924;7.114;2022-11-10T17:02:59;3.45;;;1.70;;
22531;SDS011;11432;46.924;7.114;2022-11-10T17:05:28;5.65;;;1.90;;
22531;SDS011;11432;46.924;7.114;2022-11-10T17:07:54;2.38;;;1.55;;
22531;SDS011;11432;46.924;7.114;2022-11-10T17:10:22;3.38;;;1.55;;
22531;SDS011;11432;46.924;7.114;2022-11-10T17:12:48;2.92;;;1.60;;
22531;SDS011;11432;46.924;7.114;2022-11-10T17:15:14;6.65;;;1.80;;
22531;SDS011;11432;46.924;7.114;2022-11-10T17:17:41;3.88;;;1.98;;
22531;SDS011;11432;46.924;7.114;2022-11-10T17:20:19;5.05;;;2.08;;
22531;SDS011;11432;46.924;7.114;2022-11-10T17:22:48;4.25;;;1.77;;